Storm Events Database

Event Details

Event Thunderstorm Wind
Magnitude 55 kts.
State MISSISSIPPI
County/Area RANKIN
WFO JAN
Begin Date 08/15/2010 16:10:00 CST-6
Begin Range 1
Begin Azimuth ENE
Begin Location FLORENCE
Begin Lat/Lon 32.15/-90.12
End Date 08/15/2010 16:13:00 CST-6
End Range 0
End Azimuth E
End Location CLEARY
End Lat/Lon 32.17/-90.17
Deaths Direct/Indirect 0/0 (fatality details below, when available...)
Injuries Direct/Indirect 0/0
Property Damage 25.00K
Crop Damage
Episode Narrative An extremely warm and moist airmass was in place over the region on the morning of August 15th. Abundant sunshine during the morning hours led to the development of extremely high atmospheric instability by early afternoon. This environment led to numerous severe thunderstorms throughout the day, continuing into the evening hours. Numerous damaging wind reports were received, including several reports of damage caused by a strong outflow boundary that surged south across the forecast area.
Event Narrative Nine trees were downed around Florence. A barn off Cleary Road west of Florence was blown down, with parts of the tin roof scattered for over a hundred yards.


All events for this episode:

Location County/Zone St. Date Time T.Z. Type Mag Dth Inj PrD CrD
Totals: 0 0 437.00K 0.00K
ROSS WINSTON CO. MS 08/15/2010 14:00 CST-6 Thunderstorm Wind 52 kts. EG 0 0 10.00K 0.00K
PHILADELPHIA NESHOBA CO. MS 08/15/2010 14:40 CST-6 Lightning 0 0 3.00K 0.00K
LONGINO NESHOBA CO. MS 08/15/2010 14:45 CST-6 Thunderstorm Wind 52 kts. EG 0 0 20.00K 0.00K
WEIR CHOCTAW CO. MS 08/15/2010 15:20 CST-6 Thunderstorm Wind 43 kts. EG 0 0 5.00K 0.00K
KLONDIKE KEMPER CO. MS 08/15/2010 15:21 CST-6 Thunderstorm Wind 43 kts. EG 0 0 5.00K 0.00K
SUQUALENA LAUDERDALE CO. MS 08/15/2010 15:25 CST-6 Thunderstorm Wind 56 kts. EG 0 0 20.00K 0.00K
FOREST MUNI ARPT SCOTT CO. MS 08/15/2010 15:42 CST-6 Thunderstorm Wind 55 kts. EG 0 0 15.00K 0.00K
BROOKLYN FORREST CO. MS 08/15/2010 15:58 CST-6 Thunderstorm Wind 53 kts. EG 0 0 10.00K 0.00K
TRENTON SMITH CO. MS 08/15/2010 16:02 CST-6 Thunderstorm Wind 53 kts. EG 0 0 5.00K 0.00K
FLORENCE RANKIN CO. MS 08/15/2010 16:10 CST-6 Thunderstorm Wind 55 kts. EG 0 0 25.00K 0.00K
RAWLS SPGS FORREST CO. MS 08/15/2010 16:25 CST-6 Thunderstorm Wind 50 kts. EG 0 0 5.00K 0.00K
RALEIGH SMITH CO. MS 08/15/2010 16:25 CST-6 Thunderstorm Wind 55 kts. EG 0 0 50.00K 0.00K
HARRISVILLE SIMPSON CO. MS 08/15/2010 16:30 CST-6 Thunderstorm Wind 57 kts. EG 0 0 20.00K 0.00K
PACHUTA CLARKE CO. MS 08/15/2010 16:43 CST-6 Thunderstorm Wind 50 kts. EG 0 0 0.00K 0.00K
GEORGETOWN COPIAH CO. MS 08/15/2010 16:45 CST-6 Thunderstorm Wind 50 kts. EG 0 0 0.00K 0.00K
BRAXTON SIMPSON CO. MS 08/15/2010 16:47 CST-6 Thunderstorm Wind 55 kts. EG 0 0 12.00K 0.00K
CRYSTAL SPGS COPIAH CO. MS 08/15/2010 16:50 CST-6 Thunderstorm Wind 53 kts. EG 0 0 10.00K 0.00K
MENDENHALL SIMPSON CO. MS 08/15/2010 16:52 CST-6 Thunderstorm Wind 55 kts. EG 0 0 25.00K 0.00K
TALOWAH LAMAR CO. MS 08/15/2010 17:07 CST-6 Thunderstorm Wind 50 kts. EG 0 0 0.00K 0.00K
PINOLA SIMPSON CO. MS 08/15/2010 17:15 CST-6 Thunderstorm Wind 55 kts. EG 0 0 15.00K 0.00K
MT OLIVE COVINGTON CO. MS 08/15/2010 17:20 CST-6 Thunderstorm Wind 53 kts. EG 0 0 15.00K 0.00K
GLANCY COPIAH CO. MS 08/15/2010 17:30 CST-6 Thunderstorm Wind 50 kts. EG 0 0 10.00K 0.00K
PRENTISS JEFFERSON DAVIS CO. MS 08/15/2010 17:47 CST-6 Thunderstorm Wind 50 kts. EG 0 0 0.00K 0.00K
SILVER CREEK LAWRENCE CO. MS 08/15/2010 17:48 CST-6 Thunderstorm Wind 50 kts. EG 0 0 0.00K 0.00K
CAM LINCOLN CO. MS 08/15/2010 18:09 CST-6 Thunderstorm Wind 50 kts. EG 0 0 13.00K 0.00K
CARSON JEFFERSON DAVIS CO. MS 08/15/2010 18:10 CST-6 Thunderstorm Wind 50 kts. EG 0 0 0.00K 0.00K
CHERAW MARION CO. MS 08/15/2010 18:11 CST-6 Thunderstorm Wind 50 kts. EG 0 0 0.00K 0.00K
JAYESS LAWRENCE CO. MS 08/15/2010 18:25 CST-6 Thunderstorm Wind 50 kts. EG 0 0 0.00K 0.00K
STEENS LOWNDES CO. MS 08/15/2010 18:30 CST-6 Thunderstorm Wind 50 kts. EG 0 0 25.00K 0.00K
COLUMBIA MARION CO. MS 08/15/2010 18:34 CST-6 Thunderstorm Wind 55 kts. EG 0 0 12.00K 0.00K
INTERSTATE CITY LOWNDES CO. MS 08/15/2010 18:50 CST-6 Thunderstorm Wind 55 kts. EG 0 0 5.00K 0.00K
FORTENBERRY MARION CO. MS 08/15/2010 19:10 CST-6 Flash Flood 0 0 5.00K 0.00K
NEWPORT ATTALA CO. MS 08/15/2010 19:15 CST-6 Thunderstorm Wind 50 kts. EG 0 0 0.00K 0.00K
LAUDERDALE LAUDERDALE CO. MS 08/15/2010 19:22 CST-6 Thunderstorm Wind 50 kts. EG 0 0 0.00K 0.00K
BIGBEE VLY NOXUBEE CO. MS 08/15/2010 19:24 CST-6 Thunderstorm Wind 50 kts. EG 0 0 0.00K 0.00K
THOMASTOWN LEAKE CO. MS 08/15/2010 19:25 CST-6 Thunderstorm Wind 50 kts. EG 0 0 0.00K 0.00K
EDINBURG LEAKE CO. MS 08/15/2010 19:26 CST-6 Thunderstorm Wind 50 kts. EG 0 0 30.00K 0.00K
TUSCOLA LEAKE CO. MS 08/15/2010 19:35 CST-6 Thunderstorm Wind 50 kts. EG 0 0 0.00K 0.00K
CADARETTA WEBSTER CO. MS 08/15/2010 19:40 CST-6 Thunderstorm Wind 50 kts. EG 0 0 0.00K 0.00K
HILLSBORO SCOTT CO. MS 08/15/2010 20:15 CST-6 Thunderstorm Wind 55 kts. EG 0 0 15.00K 0.00K
SPRING CREEK NESHOBA CO. MS 08/15/2010 20:37 CST-6 Thunderstorm Wind 55 kts. EG 0 0 0.00K 0.00K
LONGINO NESHOBA CO. MS 08/15/2010 20:55 CST-6 Thunderstorm Wind 63 kts. EG 0 0 50.00K 0.00K
EUPORA WEBSTER CO. MS 08/15/2010 20:55 CST-6 Thunderstorm Wind 50 kts. EG 0 0 0.00K 0.00K
KALEM SCOTT CO. MS 08/15/2010 21:48 CST-6 Thunderstorm Wind 50 kts. EG 0 0 0.00K 0.00K
MC MILLAN WINSTON CO. MS 08/15/2010 21:52 CST-6 Thunderstorm Wind 53 kts. EG 0 0 0.00K 0.00K
THOMASTOWN LEAKE CO. MS 08/15/2010 21:55 CST-6 Thunderstorm Wind 55 kts. EG 0 0 2.00K 0.00K
Totals: 0 0 437.00K 0.00K